sensor_id;sensor_type;location;lat;lon;timestamp;temperature;humidity
12434;DHT22;6281;49.038;8.372;2023-04-03T00:00:32;5.50;99.90
12434;DHT22;6281;49.038;8.372;2023-04-03T00:02:59;5.60;99.90
12434;DHT22;6281;49.038;8.372;2023-04-03T00:05:26;5.60;99.90
12434;DHT22;6281;49.038;8.372;2023-04-03T00:07:52;5.70;99.90
12434;DHT22;6281;49.038;8.372;2023-04-03T00:10:19;5.50;99.90
12434;DHT22;6281;49.038;8.372;2023-04-03T00:12:47;5.50;99.90
12434;DHT22;6281;49.038;8.372;2023-04-03T00:15:15;5.50;99.90
12434;DHT22;6281;49.038;8.372;2023-04-03T00:17:49;5.60;99.90
12434;DHT22;6281;49.038;8.372;2023-04-03T00:20:16;5.60;99.90
12434;DHT22;6281;49.038;8.372;2023-04-03T00:22:43;5.60;99.90
12434;DHT22;6281;49.038;8.372;2023-04-03T00:25:11;5.60;99.90
12434;DHT22;6281;49.038;8.372;2023-04-03T00:27:39;5.60;99.90
12434;DHT22;6281;49.038;8.372;2023-04-03T00:30:11;5.60;99.90
12434;DHT22;6281;49.038;8.372;2023-04-03T00:32:39;5.60;99.90
12434;DHT22;6281;49.038;8.372;2023-04-03T00:35:06;5.60;99.90
12434;DHT22;6281;49.038;8.372;2023-04-03T00:37:33;5.50;99.90
12434;DHT22;6281;49.038;8.372;2023-04-03T00:40:01;5.60;99.90
12434;DHT22;6281;49.038;8.372;2023-04-03T00:42:28;5.60;99.90
12434;DHT22;6281;49.038;8.372;2023-04-03T00:45:26;5.50;99.90
12434;DHT22;6281;49.038;8.372;2023-04-03T00:47:54;5.40;99.90
12434;DHT22;6281;49.038;8.372;2023-04-03T00:50:22;5.40;99.90
12434;DHT22;6281;49.038;8.372;2023-04-03T00:52:49;5.50;99.90
12434;DHT22;6281;49.038;8.372;2023-04-03T00:55:17;5.40;99.90
12434;DHT22;6281;49.038;8.372;2023-04-03T00:57:45;5.40;99.90
12434;DHT22;6281;49.038;8.372;2023-04-03T01:00:15;5.40;99.90
12434;DHT22;6281;49.038;8.372;2023-04-03T01:02:44;5.40;99.90
12434;DHT22;6281;49.038;8.372;2023-04-03T01:05:12;5.50;99.90
12434;DHT22;6281;49.038;8.372;2023-04-03T01:07:40;5.40;99.90
12434;DHT22;6281;49.038;8.372;2023-04-03T01:10:09;5.50;99.90
12434;DHT22;6281;49.038;8.372;2023-04-03T01:12:41;5.40;99.90
12434;DHT22;6281;49.038;8.372;2023-04-03T01:15:10;5.40;99.90
12434;DHT22;6281;49.038;8.372;2023-04-03T01:17:39;5.40;99.90
12434;DHT22;6281;49.038;8.372;2023-04-03T01:20:58;5.30;99.90
12434;DHT22;6281;49.038;8.372;2023-04-03T01:23:38;5.40;99.90
12434;DHT22;6281;49.038;8.372;2023-04-03T01:26:08;5.40;99.90
12434;DHT22;6281;49.038;8.372;2023-04-03T01:28:37;5.30;99.90
12434;DHT22;6281;49.038;8.372;2023-04-03T01:31:12;5.30;99.90
12434;DHT22;6281;49.038;8.372;2023-04-03T01:33:42;5.30;99.90
12434;DHT22;6281;49.038;8.372;2023-04-03T01:36:15;5.00;99.90
12434;DHT22;6281;49.038;8.372;2023-04-03T01:38:42;5.20;99.90
12434;DHT22;6281;49.038;8.372;2023-04-03T01:41:09;5.10;99.90
12434;DHT22;6281;49.038;8.372;2023-04-03T01:43:35;4.90;99.90
12434;DHT22;6281;49.038;8.372;2023-04-03T01:46:02;4.90;99.90
12434;DHT22;6281;49.038;8.372;2023-04-03T01:48:29;4.90;99.90
12434;DHT22;6281;49.038;8.372;2023-04-03T01:50:57;4.90;99.90
12434;DHT22;6281;49.038;8.372;2023-04-03T01:53:24;4.80;99.90
12434;DHT22;6281;49.038;8.372;2023-04-03T01:55:51;4.80;99.90
12434;DHT22;6281;49.038;8.372;2023-04-03T01:58:18;4.80;99.90
12434;DHT22;6281;49.038;8.372;2023-04-03T02:00:45;4.80;99.90
12434;DHT22;6281;49.038;8.372;2023-04-03T02:03:12;4.90;99.90
12434;DHT22;6281;49.038;8.372;2023-04-03T02:05:39;4.70;99.90
12434;DHT22;6281;49.038;8.372;2023-04-03T02:08:07;4.60;99.90
12434;DHT22;6281;49.038;8.372;2023-04-03T02:10:34;4.80;99.90
12434;DHT22;6281;49.038;8.372;2023-04-03T02:13:01;4.70;99.90
12434;DHT22;6281;49.038;8.372;2023-04-03T02:15:28;4.70;99.90
12434;DHT22;6281;49.038;8.372;2023-04-03T02:17:55;4.70;99.90
12434;DHT22;6281;49.038;8.372;2023-04-03T02:20:22;4.60;99.90
12434;DHT22;6281;49.038;8.372;2023-04-03T02:22:49;4.50;99.90
12434;DHT22;6281;49.038;8.372;2023-04-03T02:25:17;4.70;99.90
12434;DHT22;6281;49.038;8.372;2023-04-03T02:27:44;4.40;99.90
12434;DHT22;6281;49.038;8.372;2023-04-03T02:30:11;4.40;99.90
12434;DHT22;6281;49.038;8.372;2023-04-03T02:32:40;4.50;99.90
12434;DHT22;6281;49.038;8.372;2023-04-03T02:35:07;4.50;99.90
12434;DHT22;6281;49.038;8.372;2023-04-03T02:37:34;4.50;99.90
12434;DHT22;6281;49.038;8.372;2023-04-03T02:40:01;4.30;99.90
12434;DHT22;6281;49.038;8.372;2023-04-03T02:42:30;4.30;99.90
12434;DHT22;6281;49.038;8.372;2023-04-03T02:44:57;4.20;99.90
12434;DHT22;6281;49.038;8.372;2023-04-03T02:47:25;4.30;99.90
12434;DHT22;6281;49.038;8.372;2023-04-03T02:49:52;4.30;99.90
12434;DHT22;6281;49.038;8.372;2023-04-03T02:52:19;4.20;99.90
12434;DHT22;6281;49.038;8.372;2023-04-03T02:54:46;4.10;99.90
12434;DHT22;6281;49.038;8.372;2023-04-03T02:57:13;4.10;99.90
12434;DHT22;6281;49.038;8.372;2023-04-03T02:59:42;4.10;99.90
12434;DHT22;6281;49.038;8.372;2023-04-03T03:02:09;3.90;99.90
12434;DHT22;6281;49.038;8.372;2023-04-03T03:04:37;4.00;99.90
12434;DHT22;6281;49.038;8.372;2023-04-03T03:07:04;4.00;99.90
12434;DHT22;6281;49.038;8.372;2023-04-03T03:09:31;3.80;99.90
12434;DHT22;6281;49.038;8.372;2023-04-03T03:11:58;3.90;99.90
12434;DHT22;6281;49.038;8.372;2023-04-03T03:14:25;4.00;99.90
12434;DHT22;6281;49.038;8.372;2023-04-03T03:16:53;4.00;99.90
12434;DHT22;6281;49.038;8.372;2023-04-03T03:19:21;3.80;99.90
12434;DHT22;6281;49.038;8.372;2023-04-03T03:21:47;3.90;99.90
12434;DHT22;6281;49.038;8.372;2023-04-03T03:24:14;4.10;99.90
12434;DHT22;6281;49.038;8.372;2023-04-03T03:26:42;4.00;99.90
12434;DHT22;6281;49.038;8.372;2023-04-03T03:29:09;4.00;99.90
12434;DHT22;6281;49.038;8.372;2023-04-03T03:31:36;4.00;99.90
12434;DHT22;6281;49.038;8.372;2023-04-03T03:34:05;4.00;99.90
12434;DHT22;6281;49.038;8.372;2023-04-03T03:36:32;4.00;99.90
12434;DHT22;6281;49.038;8.372;2023-04-03T03:38:58;4.00;99.90
12434;DHT22;6281;49.038;8.372;2023-04-03T03:41:25;4.00;99.90
12434;DHT22;6281;49.038;8.372;2023-04-03T03:43:52;4.00;99.90
12434;DHT22;6281;49.038;8.372;2023-04-03T03:46:19;4.10;99.90
12434;DHT22;6281;49.038;8.372;2023-04-03T03:48:46;4.10;99.90
12434;DHT22;6281;49.038;8.372;2023-04-03T03:51:14;4.10;99.90
12434;DHT22;6281;49.038;8.372;2023-04-03T03:53:42;4.20;99.90
12434;DHT22;6281;49.038;8.372;2023-04-03T03:56:09;4.20;99.90
12434;DHT22;6281;49.038;8.372;2023-04-03T03:58:35;4.10;99.90
12434;DHT22;6281;49.038;8.372;2023-04-03T04:01:03;4.10;99.90
12434;DHT22;6281;49.038;8.372;2023-04-03T04:03:31;4.10;99.90
12434;DHT22;6281;49.038;8.372;2023-04-03T04:05:58;4.10;99.90
12434;DHT22;6281;49.038;8.372;2023-04-03T04:08:26;4.00;99.90
12434;DHT22;6281;49.038;8.372;2023-04-03T04:10:53;4.20;99.90
12434;DHT22;6281;49.038;8.372;2023-04-03T04:13:20;4.20;99.90
12434;DHT22;6281;49.038;8.372;2023-04-03T04:15:47;4.20;99.90
12434;DHT22;6281;49.038;8.372;2023-04-03T04:18:14;4.20;99.90
12434;DHT22;6281;49.038;8.372;2023-04-03T04:20:41;4.20;99.90
12434;DHT22;6281;49.038;8.372;2023-04-03T04:23:07;4.20;99.90
12434;DHT22;6281;49.038;8.372;2023-04-03T04:25:36;4.20;99.90
12434;DHT22;6281;49.038;8.372;2023-04-03T04:28:03;4.30;99.90
12434;DHT22;6281;49.038;8.372;2023-04-03T04:30:30;4.10;99.90
12434;DHT22;6281;49.038;8.372;2023-04-03T04:32:57;4.10;99.90
12434;DHT22;6281;49.038;8.372;2023-04-03T04:35:24;4.10;99.90
12434;DHT22;6281;49.038;8.372;2023-04-03T04:37:51;4.10;99.90
12434;DHT22;6281;49.038;8.372;2023-04-03T04:40:18;4.10;99.90
12434;DHT22;6281;49.038;8.372;2023-04-03T04:42:46;4.10;99.90
12434;DHT22;6281;49.038;8.372;2023-04-03T04:45:13;4.20;99.90
12434;DHT22;6281;49.038;8.372;2023-04-03T04:47:41;4.10;99.90
12434;DHT22;6281;49.038;8.372;2023-04-03T04:50:09;4.10;99.90
12434;DHT22;6281;49.038;8.372;2023-04-03T04:52:36;4.20;99.90
12434;DHT22;6281;49.038;8.372;2023-04-03T04:55:04;4.30;99.90
12434;DHT22;6281;49.038;8.372;2023-04-03T04:57:31;4.10;99.90
12434;DHT22;6281;49.038;8.372;2023-04-03T04:59:59;4.00;99.90
12434;DHT22;6281;49.038;8.372;2023-04-03T05:02:26;3.90;99.90
12434;DHT22;6281;49.038;8.372;2023-04-03T05:04:53;3.80;99.90
12434;DHT22;6281;49.038;8.372;2023-04-03T05:07:20;3.70;99.90
12434;DHT22;6281;49.038;8.372;2023-04-03T05:09:47;3.70;99.90
12434;DHT22;6281;49.038;8.372;2023-04-03T05:12:14;3.70;99.90
12434;DHT22;6281;49.038;8.372;2023-04-03T05:14:41;3.60;99.90
12434;DHT22;6281;49.038;8.372;2023-04-03T05:17:09;3.50;99.90
12434;DHT22;6281;49.038;8.372;2023-04-03T05:19:36;3.60;99.90
12434;DHT22;6281;49.038;8.372;2023-04-03T05:22:03;3.60;99.90
12434;DHT22;6281;49.038;8.372;2023-04-03T05:24:30;3.50;99.90
12434;DHT22;6281;49.038;8.372;2023-04-03T05:26:57;3.40;99.90
12434;DHT22;6281;49.038;8.372;2023-04-03T05:29:24;3.40;99.90
12434;DHT22;6281;49.038;8.372;2023-04-03T05:31:51;3.50;99.90
12434;DHT22;6281;49.038;8.372;2023-04-03T05:34:19;3.40;99.90
12434;DHT22;6281;49.038;8.372;2023-04-03T05:36:46;3.50;99.90
12434;DHT22;6281;49.038;8.372;2023-04-03T05:39:14;3.50;99.90
12434;DHT22;6281;49.038;8.372;2023-04-03T05:41:40;3.40;99.90
12434;DHT22;6281;49.038;8.372;2023-04-03T05:44:07;3.40;99.90
12434;DHT22;6281;49.038;8.372;2023-04-03T05:46:34;3.40;99.90
12434;DHT22;6281;49.038;8.372;2023-04-03T05:49:01;3.40;99.90
12434;DHT22;6281;49.038;8.372;2023-04-03T05:51:33;3.40;99.90
12434;DHT22;6281;49.038;8.372;2023-04-03T05:54:04;3.60;99.90
12434;DHT22;6281;49.038;8.372;2023-04-03T05:56:32;3.50;99.90
12434;DHT22;6281;49.038;8.372;2023-04-03T05:58:59;3.60;99.90
12434;DHT22;6281;49.038;8.372;2023-04-03T06:01:26;3.40;99.90
12434;DHT22;6281;49.038;8.372;2023-04-03T06:03:53;3.60;99.90
12434;DHT22;6281;49.038;8.372;2023-04-03T06:06:21;3.70;99.90
12434;DHT22;6281;49.038;8.372;2023-04-03T06:08:50;3.80;99.90
12434;DHT22;6281;49.038;8.372;2023-04-03T06:11:17;3.70;99.90
12434;DHT22;6281;49.038;8.372;2023-04-03T06:13:44;3.80;99.90
12434;DHT22;6281;49.038;8.372;2023-04-03T06:16:12;4.00;99.90
12434;DHT22;6281;49.038;8.372;2023-04-03T06:18:40;4.00;99.90
12434;DHT22;6281;49.038;8.372;2023-04-03T06:21:07;4.10;99.90
12434;DHT22;6281;49.038;8.372;2023-04-03T06:23:34;4.00;99.90
12434;DHT22;6281;49.038;8.372;2023-04-03T06:26:03;4.20;99.90
12434;DHT22;6281;49.038;8.372;2023-04-03T06:28:31;4.00;99.90
12434;DHT22;6281;49.038;8.372;2023-04-03T06:30:57;4.20;99.90
12434;DHT22;6281;49.038;8.372;2023-04-03T06:33:24;4.30;99.90
12434;DHT22;6281;49.038;8.372;2023-04-03T06:35:56;4.30;99.90
12434;DHT22;6281;49.038;8.372;2023-04-03T06:38:23;4.40;99.90
12434;DHT22;6281;49.038;8.372;2023-04-03T06:40:50;4.50;99.90
12434;DHT22;6281;49.038;8.372;2023-04-03T06:43:19;4.40;99.90
12434;DHT22;6281;49.038;8.372;2023-04-03T06:45:46;4.50;99.90
12434;DHT22;6281;49.038;8.372;2023-04-03T06:48:13;4.70;99.90
12434;DHT22;6281;49.038;8.372;2023-04-03T06:50:39;4.70;99.90
12434;DHT22;6281;49.038;8.372;2023-04-03T06:53:06;4.70;99.90
12434;DHT22;6281;49.038;8.372;2023-04-03T06:55:33;4.70;99.90
12434;DHT22;6281;49.038;8.372;2023-04-03T06:58:00;4.90;99.90
12434;DHT22;6281;49.038;8.372;2023-04-03T07:00:28;5.00;99.90
12434;DHT22;6281;49.038;8.372;2023-04-03T07:02:55;4.80;99.90
12434;DHT22;6281;49.038;8.372;2023-04-03T07:05:23;4.90;99.90
12434;DHT22;6281;49.038;8.372;2023-04-03T07:07:50;5.10;99.90
12434;DHT22;6281;49.038;8.372;2023-04-03T07:10:17;5.00;99.90
12434;DHT22;6281;49.038;8.372;2023-04-03T07:12:44;5.20;99.90
12434;DHT22;6281;49.038;8.372;2023-04-03T07:15:11;5.20;99.90
12434;DHT22;6281;49.038;8.372;2023-04-03T07:17:41;5.30;99.90
12434;DHT22;6281;49.038;8.372;2023-04-03T07:20:08;5.20;99.90
12434;DHT22;6281;49.038;8.372;2023-04-03T07:22:36;5.10;99.90
12434;DHT22;6281;49.038;8.372;2023-04-03T07:25:03;5.20;99.90
12434;DHT22;6281;49.038;8.372;2023-04-03T07:27:32;5.30;99.90
12434;DHT22;6281;49.038;8.372;2023-04-03T07:29:59;5.40;99.90
12434;DHT22;6281;49.038;8.372;2023-04-03T07:32:26;5.50;99.90
12434;DHT22;6281;49.038;8.372;2023-04-03T07:34:54;5.50;99.90
12434;DHT22;6281;49.038;8.372;2023-04-03T07:37:21;5.60;99.90
12434;DHT22;6281;49.038;8.372;2023-04-03T07:39:48;5.60;99.90
12434;DHT22;6281;49.038;8.372;2023-04-03T07:42:15;5.60;99.90
12434;DHT22;6281;49.038;8.372;2023-04-03T07:44:42;5.70;99.90
12434;DHT22;6281;49.038;8.372;2023-04-03T07:47:09;5.70;99.90
12434;DHT22;6281;49.038;8.372;2023-04-03T07:49:36;5.70;99.90
12434;DHT22;6281;49.038;8.372;2023-04-03T07:52:07;5.70;99.90
12434;DHT22;6281;49.038;8.372;2023-04-03T07:54:35;5.90;99.90
12434;DHT22;6281;49.038;8.372;2023-04-03T07:57:02;5.90;99.90
12434;DHT22;6281;49.038;8.372;2023-04-03T07:59:29;6.00;99.90
12434;DHT22;6281;49.038;8.372;2023-04-03T08:01:56;6.20;99.90
12434;DHT22;6281;49.038;8.372;2023-04-03T08:04:23;6.30;99.90
12434;DHT22;6281;49.038;8.372;2023-04-03T08:06:50;6.30;99.90
12434;DHT22;6281;49.038;8.372;2023-04-03T08:09:18;6.50;99.90
12434;DHT22;6281;49.038;8.372;2023-04-03T08:11:45;6.40;99.90
12434;DHT22;6281;49.038;8.372;2023-04-03T08:14:13;6.40;99.90
12434;DHT22;6281;49.038;8.372;2023-04-03T08:16:42;6.60;99.90
12434;DHT22;6281;49.038;8.372;2023-04-03T08:19:09;6.80;99.90
12434;DHT22;6281;49.038;8.372;2023-04-03T08:21:36;7.10;99.90
12434;DHT22;6281;49.038;8.372;2023-04-03T08:24:03;6.80;99.90
12434;DHT22;6281;49.038;8.372;2023-04-03T08:26:32;6.80;99.90
12434;DHT22;6281;49.038;8.372;2023-04-03T08:29:00;6.90;99.90
12434;DHT22;6281;49.038;8.372;2023-04-03T08:31:27;7.10;99.90
12434;DHT22;6281;49.038;8.372;2023-04-03T08:33:54;7.20;99.90
12434;DHT22;6281;49.038;8.372;2023-04-03T08:36:22;7.10;99.90
12434;DHT22;6281;49.038;8.372;2023-04-03T08:38:50;7.30;99.90
12434;DHT22;6281;49.038;8.372;2023-04-03T08:41:25;7.30;99.90
12434;DHT22;6281;49.038;8.372;2023-04-03T08:44:17;7.50;99.90
12434;DHT22;6281;49.038;8.372;2023-04-03T08:47:04;7.60;99.90
12434;DHT22;6281;49.038;8.372;2023-04-03T08:49:41;7.10;99.90
12434;DHT22;6281;49.038;8.372;2023-04-03T08:52:15;7.20;99.90
12434;DHT22;6281;49.038;8.372;2023-04-03T08:54:49;7.50;99.90
12434;DHT22;6281;49.038;8.372;2023-04-03T08:57:23;7.30;99.90
12434;DHT22;6281;49.038;8.372;2023-04-03T08:59:53;7.00;99.90
12434;DHT22;6281;49.038;8.372;2023-04-03T09:02:27;7.30;99.90
12434;DHT22;6281;49.038;8.372;2023-04-03T09:04:55;7.50;99.90
12434;DHT22;6281;49.038;8.372;2023-04-03T09:07:30;7.40;99.90
12434;DHT22;6281;49.038;8.372;2023-04-03T09:10:01;7.60;99.90
12434;DHT22;6281;49.038;8.372;2023-04-03T09:12:33;7.80;99.90
12434;DHT22;6281;49.038;8.372;2023-04-03T09:15:18;7.80;99.90
12434;DHT22;6281;49.038;8.372;2023-04-03T09:18:03;7.50;99.90
12434;DHT22;6281;49.038;8.372;2023-04-03T09:20:39;7.50;99.90
12434;DHT22;6281;49.038;8.372;2023-04-03T09:23:18;7.50;99.90
12434;DHT22;6281;49.038;8.372;2023-04-03T09:25:46;7.40;99.90
12434;DHT22;6281;49.038;8.372;2023-04-03T09:28:13;7.30;99.90
12434;DHT22;6281;49.038;8.372;2023-04-03T09:30:41;7.90;99.90
12434;DHT22;6281;49.038;8.372;2023-04-03T09:33:09;8.20;99.90
12434;DHT22;6281;49.038;8.372;2023-04-03T09:35:37;8.80;99.90
12434;DHT22;6281;49.038;8.372;2023-04-03T09:38:16;9.20;99.90
12434;DHT22;6281;49.038;8.372;2023-04-03T09:40:45;8.20;99.90
12434;DHT22;6281;49.038;8.372;2023-04-03T09:43:29;8.10;99.90
12434;DHT22;6281;49.038;8.372;2023-04-03T09:46:16;8.60;99.90
12434;DHT22;6281;49.038;8.372;2023-04-03T09:48:50;8.20;99.90
12434;DHT22;6281;49.038;8.372;2023-04-03T09:51:17;9.00;99.90
12434;DHT22;6281;49.038;8.372;2023-04-03T09:53:45;8.10;99.90
12434;DHT22;6281;49.038;8.372;2023-04-03T09:56:21;8.00;99.90
12434;DHT22;6281;49.038;8.372;2023-04-03T09:58:50;9.30;99.90
12434;DHT22;6281;49.038;8.372;2023-04-03T10:01:27;8.80;99.90
12434;DHT22;6281;49.038;8.372;2023-04-03T10:04:05;9.30;99.90
12434;DHT22;6281;49.038;8.372;2023-04-03T10:06:34;9.40;99.90
12434;DHT22;6281;49.038;8.372;2023-04-03T10:09:03;9.20;99.90
12434;DHT22;6281;49.038;8.372;2023-04-03T10:11:31;8.80;99.90
12434;DHT22;6281;49.038;8.372;2023-04-03T10:13:59;8.60;99.90
12434;DHT22;6281;49.038;8.372;2023-04-03T10:16:32;8.40;99.90
12434;DHT22;6281;49.038;8.372;2023-04-03T10:19:31;8.20;99.90
12434;DHT22;6281;49.038;8.372;2023-04-03T10:22:01;8.30;99.90
12434;DHT22;6281;49.038;8.372;2023-04-03T10:24:35;8.20;99.90
12434;DHT22;6281;49.038;8.372;2023-04-03T10:27:08;8.70;99.90
12434;DHT22;6281;49.038;8.372;2023-04-03T10:29:42;9.30;95.20
12434;DHT22;6281;49.038;8.372;2023-04-03T10:32:21;8.70;94.40
12434;DHT22;6281;49.038;8.372;2023-04-03T10:34:56;8.50;99.90
12434;DHT22;6281;49.038;8.372;2023-04-03T10:37:27;8.40;99.90
12434;DHT22;6281;49.038;8.372;2023-04-03T10:40:05;8.50;99.90
12434;DHT22;6281;49.038;8.372;2023-04-03T10:42:41;8.50;99.90
12434;DHT22;6281;49.038;8.372;2023-04-03T10:45:20;8.30;99.90
12434;DHT22;6281;49.038;8.372;2023-04-03T10:47:56;8.60;99.90
12434;DHT22;6281;49.038;8.372;2023-04-03T10:50:36;8.50;99.90
12434;DHT22;6281;49.038;8.372;2023-04-03T10:53:10;8.20;90.30
12434;DHT22;6281;49.038;8.372;2023-04-03T10:55:45;7.90;88.40
12434;DHT22;6281;49.038;8.372;2023-04-03T10:58:20;8.10;99.90
12434;DHT22;6281;49.038;8.372;2023-04-03T11:00:53;8.20;99.90
12434;DHT22;6281;49.038;8.372;2023-04-03T11:03:29;8.20;94.40
12434;DHT22;6281;49.038;8.372;2023-04-03T11:05:59;9.30;86.80
12434;DHT22;6281;49.038;8.372;2023-04-03T11:08:33;8.90;91.40
12434;DHT22;6281;49.038;8.372;2023-04-03T11:11:05;8.80;91.40
12434;DHT22;6281;49.038;8.372;2023-04-03T11:13:35;8.80;90.20
12434;DHT22;6281;49.038;8.372;2023-04-03T11:16:05;9.60;82.20
12434;DHT22;6281;49.038;8.372;2023-04-03T11:18:39;9.20;88.10
12434;DHT22;6281;49.038;8.372;2023-04-03T11:21:11;9.00;90.50
12434;DHT22;6281;49.038;8.372;2023-04-03T11:23:40;8.60;79.10
12434;DHT22;6281;49.038;8.372;2023-04-03T11:26:10;8.50;83.10
12434;DHT22;6281;49.038;8.372;2023-04-03T11:28:37;8.60;95.00
12434;DHT22;6281;49.038;8.372;2023-04-03T11:31:13;8.60;95.60
12434;DHT22;6281;49.038;8.372;2023-04-03T11:33:48;8.70;85.40
12434;DHT22;6281;49.038;8.372;2023-04-03T11:36:22;8.70;91.60
12434;DHT22;6281;49.038;8.372;2023-04-03T11:38:52;8.70;89.10
12434;DHT22;6281;49.038;8.372;2023-04-03T11:41:26;8.80;93.40
12434;DHT22;6281;49.038;8.372;2023-04-03T11:43:58;9.00;98.90
12434;DHT22;6281;49.038;8.372;2023-04-03T11:46:49;8.90;98.20
12434;DHT22;6281;49.038;8.372;2023-04-03T11:56:00;8.70;99.90
12434;DHT22;6281;49.038;8.372;2023-04-03T11:58:29;8.70;98.30
12434;DHT22;6281;49.038;8.372;2023-04-03T12:04:10;8.60;92.90
12434;DHT22;6281;49.038;8.372;2023-04-03T12:10:16;8.30;99.90
12434;DHT22;6281;49.038;8.372;2023-04-03T12:12:56;8.30;96.20
12434;DHT22;6281;49.038;8.372;2023-04-03T12:15:54;8.50;95.80
12434;DHT22;6281;49.038;8.372;2023-04-03T12:18:57;8.50;96.70
12434;DHT22;6281;49.038;8.372;2023-04-03T12:24:26;8.60;94.80
12434;DHT22;6281;49.038;8.372;2023-04-03T12:27:11;8.50;99.90
12434;DHT22;6281;49.038;8.372;2023-04-03T12:29:47;8.30;96.80
12434;DHT22;6281;49.038;8.372;2023-04-03T12:32:25;8.20;99.20
12434;DHT22;6281;49.038;8.372;2023-04-03T12:35:14;8.50;99.90
12434;DHT22;6281;49.038;8.372;2023-04-03T12:38:10;8.80;96.60
12434;DHT22;6281;49.038;8.372;2023-04-03T12:40:44;9.00;97.70
12434;DHT22;6281;49.038;8.372;2023-04-03T12:43:28;9.10;92.70
12434;DHT22;6281;49.038;8.372;2023-04-03T12:46:03;9.20;99.90
12434;DHT22;6281;49.038;8.372;2023-04-03T12:48:34;8.90;85.60
12434;DHT22;6281;49.038;8.372;2023-04-03T12:51:05;8.60;90.80
12434;DHT22;6281;49.038;8.372;2023-04-03T12:53:33;8.40;87.50
12434;DHT22;6281;49.038;8.372;2023-04-03T12:56:23;8.50;84.50
12434;DHT22;6281;49.038;8.372;2023-04-03T12:58:52;8.90;86.20
12434;DHT22;6281;49.038;8.372;2023-04-03T13:01:22;8.80;90.00
12434;DHT22;6281;49.038;8.372;2023-04-03T13:03:52;8.90;87.40
12434;DHT22;6281;49.038;8.372;2023-04-03T13:06:22;8.80;83.60
12434;DHT22;6281;49.038;8.372;2023-04-03T13:08:51;8.70;87.20
12434;DHT22;6281;49.038;8.372;2023-04-03T13:11:19;8.70;99.90
12434;DHT22;6281;49.038;8.372;2023-04-03T13:13:58;8.70;97.20
12434;DHT22;6281;49.038;8.372;2023-04-03T13:16:27;8.80;99.70
12434;DHT22;6281;49.038;8.372;2023-04-03T13:18:55;8.60;99.90
12434;DHT22;6281;49.038;8.372;2023-04-03T13:21:25;8.60;98.50
12434;DHT22;6281;49.038;8.372;2023-04-03T13:23:54;8.50;92.90
12434;DHT22;6281;49.038;8.372;2023-04-03T13:26:24;8.50;94.80
12434;DHT22;6281;49.038;8.372;2023-04-03T13:28:53;8.40;95.40
12434;DHT22;6281;49.038;8.372;2023-04-03T13:31:26;8.40;90.80
12434;DHT22;6281;49.038;8.372;2023-04-03T13:33:57;8.50;98.20
12434;DHT22;6281;49.038;8.372;2023-04-03T13:36:26;8.70;99.90
12434;DHT22;6281;49.038;8.372;2023-04-03T13:38:59;8.80;99.90
12434;DHT22;6281;49.038;8.372;2023-04-03T13:41:30;8.80;99.90
12434;DHT22;6281;49.038;8.372;2023-04-03T13:43:57;9.60;99.90
12434;DHT22;6281;49.038;8.372;2023-04-03T13:46:42;9.70;90.90
12434;DHT22;6281;49.038;8.372;2023-04-03T13:49:18;9.70;89.40
12434;DHT22;6281;49.038;8.372;2023-04-03T13:51:46;9.40;85.10
12434;DHT22;6281;49.038;8.372;2023-04-03T13:54:19;9.00;85.10
12434;DHT22;6281;49.038;8.372;2023-04-03T13:56:52;9.20;99.30
12434;DHT22;6281;49.038;8.372;2023-04-03T13:59:23;9.00;93.10
12434;DHT22;6281;49.038;8.372;2023-04-03T14:01:55;9.20;99.60
12434;DHT22;6281;49.038;8.372;2023-04-03T14:04:24;9.10;92.60
12434;DHT22;6281;49.038;8.372;2023-04-03T14:06:51;8.90;85.50
12434;DHT22;6281;49.038;8.372;2023-04-03T14:09:20;8.80;90.60
12434;DHT22;6281;49.038;8.372;2023-04-03T14:11:48;8.40;95.80
12434;DHT22;6281;49.038;8.372;2023-04-03T14:14:18;8.20;95.10
12434;DHT22;6281;49.038;8.372;2023-04-03T14:16:47;8.30;97.60
12434;DHT22;6281;49.038;8.372;2023-04-03T14:19:20;8.50;99.90
12434;DHT22;6281;49.038;8.372;2023-04-03T14:21:48;8.70;99.90
12434;DHT22;6281;49.038;8.372;2023-04-03T14:24:16;9.00;99.90
12434;DHT22;6281;49.038;8.372;2023-04-03T14:26:43;9.00;99.90
12434;DHT22;6281;49.038;8.372;2023-04-03T14:29:11;9.10;97.00
12434;DHT22;6281;49.038;8.372;2023-04-03T14:31:38;9.00;99.00
12434;DHT22;6281;49.038;8.372;2023-04-03T14:34:05;8.70;92.60
12434;DHT22;6281;49.038;8.372;2023-04-03T14:36:34;8.50;94.50
12434;DHT22;6281;49.038;8.372;2023-04-03T14:39:01;8.60;94.30
12434;DHT22;6281;49.038;8.372;2023-04-03T14:41:28;8.50;91.20
12434;DHT22;6281;49.038;8.372;2023-04-03T14:43:55;8.50;99.90
12434;DHT22;6281;49.038;8.372;2023-04-03T14:46:26;8.40;87.60
12434;DHT22;6281;49.038;8.372;2023-04-03T14:48:54;8.50;91.30
12434;DHT22;6281;49.038;8.372;2023-04-03T14:51:21;8.50;88.00
12434;DHT22;6281;49.038;8.372;2023-04-03T14:53:49;8.70;91.60
12434;DHT22;6281;49.038;8.372;2023-04-03T14:56:18;8.50;80.40
12434;DHT22;6281;49.038;8.372;2023-04-03T14:58:47;8.50;91.00
12434;DHT22;6281;49.038;8.372;2023-04-03T15:01:16;8.70;95.20
12434;DHT22;6281;49.038;8.372;2023-04-03T15:03:43;8.70;87.80
12434;DHT22;6281;49.038;8.372;2023-04-03T15:06:11;9.10;84.00
12434;DHT22;6281;49.038;8.372;2023-04-03T15:08:38;9.30;78.80
12434;DHT22;6281;49.038;8.372;2023-04-03T15:11:08;8.70;74.90
12434;DHT22;6281;49.038;8.372;2023-04-03T15:13:35;8.40;76.80
12434;DHT22;6281;49.038;8.372;2023-04-03T15:16:02;8.70;75.00
12434;DHT22;6281;49.038;8.372;2023-04-03T15:18:37;9.90;78.20
12434;DHT22;6281;49.038;8.372;2023-04-03T15:21:04;10.60;70.70
12434;DHT22;6281;49.038;8.372;2023-04-03T15:23:31;10.80;64.50
12434;DHT22;6281;49.038;8.372;2023-04-03T15:25:58;10.70;59.50
12434;DHT22;6281;49.038;8.372;2023-04-03T15:28:30;11.00;59.40
12434;DHT22;6281;49.038;8.372;2023-04-03T15:30:57;11.20;57.00
12434;DHT22;6281;49.038;8.372;2023-04-03T15:33:24;12.00;58.90
12434;DHT22;6281;49.038;8.372;2023-04-03T15:35:51;11.70;57.70
12434;DHT22;6281;49.038;8.372;2023-04-03T15:38:18;11.80;57.30
12434;DHT22;6281;49.038;8.372;2023-04-03T15:40:45;11.10;56.50
12434;DHT22;6281;49.038;8.372;2023-04-03T15:43:13;11.00;55.90
12434;DHT22;6281;49.038;8.372;2023-04-03T15:45:42;10.10;56.70
12434;DHT22;6281;49.038;8.372;2023-04-03T15:48:10;9.50;57.40
12434;DHT22;6281;49.038;8.372;2023-04-03T15:50:37;9.50;59.50
12434;DHT22;6281;49.038;8.372;2023-04-03T15:53:04;9.30;61.40
12434;DHT22;6281;49.038;8.372;2023-04-03T15:55:33;10.00;62.20
12434;DHT22;6281;49.038;8.372;2023-04-03T15:58:01;10.40;57.90
12434;DHT22;6281;49.038;8.372;2023-04-03T16:00:28;11.40;59.10
12434;DHT22;6281;49.038;8.372;2023-04-03T16:02:59;11.70;56.50
12434;DHT22;6281;49.038;8.372;2023-04-03T16:05:29;11.60;56.70
12434;DHT22;6281;49.038;8.372;2023-04-03T16:07:57;11.40;54.90
12434;DHT22;6281;49.038;8.372;2023-04-03T16:10:24;11.70;54.90
12434;DHT22;6281;49.038;8.372;2023-04-03T16:12:51;11.30;54.00
12434;DHT22;6281;49.038;8.372;2023-04-03T16:15:18;10.50;54.50
12434;DHT22;6281;49.038;8.372;2023-04-03T16:17:45;10.30;54.50
12434;DHT22;6281;49.038;8.372;2023-04-03T16:20:15;10.00;53.70
12434;DHT22;6281;49.038;8.372;2023-04-03T16:22:42;9.80;56.90
12434;DHT22;6281;49.038;8.372;2023-04-03T16:25:09;9.90;56.90
12434;DHT22;6281;49.038;8.372;2023-04-03T16:27:37;9.90;57.40
12434;DHT22;6281;49.038;8.372;2023-04-03T16:30:05;11.10;56.50
12434;DHT22;6281;49.038;8.372;2023-04-03T16:32:32;10.90;53.60